Iguazu Aerodrome, Argentina
Current Conditions -  °F | °C
As of 3:00 PM on Wednesday 28 Jan 2015 (Local Time) from SARI Reporting Station
Thunderstorm Thunderstorm  
Wind Chill: 73°   Ceiling: 2000
Heat Index: 73°   Visibility: 1.8mi
Dew Point: 73°   Wind: 21mph
Humidity: 100%   Direction: 270°W
Pressure: 29.88"   Gusts: NA
Location:  25.73°S, 54.47°W
Report Text: SARI 281800Z 27018KT 3000 TSRA BKN020OVC045 FEW050CB 23/23 Q1012
Loading
Personal Weather Stations






























Interactive Weather Map New forecast layout! Learn more

10-Day Weather Forecast

Advertisements
Track Severe Weather on mobile